createdAt,value
2019-02-26T00:01:14.425Z,99589.39
2019-02-26T00:03:42.800Z,99594.88
2019-02-26T00:06:13.017Z,99591.05
2019-02-26T00:08:42.430Z,99592.11
2019-02-26T00:11:11.753Z,99595.21
2019-02-26T00:13:41.986Z,99589.58
2019-02-26T00:16:13.421Z,99589.63
2019-02-26T00:18:43.217Z,99588.04
2019-02-26T00:21:14.138Z,99592.17
2019-02-26T00:23:44.385Z,99588.16
2019-02-26T00:26:17.176Z,99582.39
2019-02-26T00:28:46.626Z,99583.20
2019-02-26T00:31:15.983Z,99584.06
2019-02-26T00:33:46.279Z,99584.64
2019-02-26T00:36:16.459Z,99580.23
2019-02-26T00:38:45.794Z,99579.92
2019-02-26T00:41:16.043Z,99575.44
2019-02-26T00:43:46.349Z,99563.47
2019-02-26T00:46:16.619Z,99560.70
2019-02-26T00:48:46.850Z,99563.77
2019-02-26T00:51:18.120Z,99566.37
2019-02-26T00:53:50.818Z,99568.05
2019-02-26T00:56:19.053Z,99565.77
2019-02-26T00:58:50.378Z,99562.28
2019-02-26T01:01:23.875Z,99563.66
2019-02-26T01:03:55.439Z,99566.82
2019-02-26T01:06:26.892Z,99578.96
2019-02-26T01:09:01.106Z,99582.70
2019-02-26T01:11:30.281Z,99575.34
2019-02-26T01:14:00.557Z,99575.87
2019-02-26T01:16:30.764Z,99579.70
2019-02-26T01:19:00.988Z,99584.63
2019-02-26T01:21:31.104Z,99580.19
2019-02-26T01:24:01.739Z,99573.67
2019-02-26T01:26:33.224Z,99573.72
2019-02-26T01:29:05.166Z,99570.59
2019-02-26T01:31:35.406Z,99569.17
2019-02-26T01:34:05.677Z,99570.00
2019-02-26T01:36:35.989Z,99571.00
2019-02-26T01:39:11.386Z,99578.34
2019-02-26T01:41:43.377Z,99584.69
2019-02-26T01:44:11.299Z,99584.95
2019-02-26T01:46:41.507Z,99584.27
2019-02-26T01:49:12.216Z,99584.22
2019-02-26T01:51:43.286Z,99587.33
2019-02-26T01:54:14.579Z,99588.98
2019-02-26T01:56:46.955Z,99580.30
2019-02-26T01:59:18.988Z,99579.77
2019-02-26T02:01:49.691Z,99580.34
2019-02-26T02:04:19.592Z,99582.75
2019-02-26T02:06:51.625Z,99576.10
2019-02-26T02:09:22.754Z,99570.65
2019-02-26T02:11:52.377Z,99566.92
2019-02-26T02:14:23.017Z,99565.59
2019-02-26T02:16:53.250Z,99568.86
2019-02-26T02:19:23.554Z,99562.78
2019-02-26T02:21:55.983Z,99547.56
2019-02-26T02:24:27.816Z,99542.89
2019-02-26T02:26:58.444Z,99540.97
2019-02-26T02:29:28.904Z,99535.98
2019-02-26T02:31:59.543Z,99536.55
2019-02-26T02:34:29.616Z,99537.52
2019-02-26T02:36:59.484Z,99533.69
2019-02-26T02:39:31.183Z,99529.33
2019-02-26T02:42:01.371Z,99532.80
2019-02-26T02:44:32.127Z,99533.05
2019-02-26T02:47:01.881Z,99530.27
2019-02-26T02:49:35.819Z,99524.19
2019-02-26T02:52:06.559Z,99517.12
2019-02-26T02:54:38.712Z,99520.63
2019-02-26T02:57:09.982Z,99528.55
2019-02-26T02:59:42.232Z,99531.27
2019-02-26T03:02:12.751Z,99538.86
2019-02-26T03:04:42.609Z,99544.89
2019-02-26T03:07:15.064Z,99544.31
2019-02-26T03:09:45.664Z,99542.17
2019-02-26T03:12:15.597Z,99545.79
2019-02-26T03:14:45.768Z,99554.62
2019-02-26T03:17:18.201Z,99543.89
2019-02-26T03:19:47.864Z,99539.42
2019-02-26T03:22:18.855Z,99538.30
2019-02-26T03:24:48.346Z,99540.80
2019-02-26T03:27:18.220Z,99546.20
2019-02-26T03:29:49.812Z,99541.79
2019-02-26T03:32:19.453Z,99542.13
2019-02-26T03:34:49.879Z,99526.34
2019-02-26T03:37:19.092Z,99525.23
2019-02-26T03:39:49.736Z,99525.70
2019-02-26T03:42:21.139Z,99512.13
2019-02-26T03:44:49.952Z,99507.26
2019-02-26T03:47:20.224Z,99506.89
2019-02-26T03:49:49.454Z,99502.17
2019-02-26T03:52:19.635Z,99503.02
2019-02-26T03:54:50.737Z,99492.48
2019-02-26T03:57:22.196Z,99493.21
2019-02-26T03:59:50.871Z,99496.42
2019-02-26T04:02:23.473Z,99489.40
2019-02-26T04:04:54.398Z,99487.45
2019-02-26T04:07:25.988Z,99486.41
2019-02-26T04:09:55.948Z,99483.05
2019-02-26T04:12:27.091Z,99485.25
2019-02-26T04:14:56.312Z,99481.16
2019-02-26T04:17:28.132Z,99472.63
2019-02-26T04:19:57.459Z,99470.10
2019-02-26T04:22:35.595Z,99464.20
2019-02-26T04:25:09.297Z,99468.95
2019-02-26T04:27:47.480Z,99468.75
2019-02-26T04:30:36.623Z,99467.33
2019-02-26T04:33:20.113Z,99468.69
2019-02-26T04:36:09.759Z,99464.12
2019-02-26T04:39:18.418Z,99466.48
2019-02-26T04:42:11.340Z,99467.73
2019-02-26T04:44:47.695Z,99467.00
2019-02-26T04:47:21.259Z,99465.38
2019-02-26T04:49:50.352Z,99460.83
2019-02-26T04:52:19.628Z,99459.09
2019-02-26T04:54:48.350Z,99457.43
2019-02-26T04:57:18.542Z,99451.30
2019-02-26T04:59:48.765Z,99454.28
2019-02-26T05:02:18.119Z,99457.33
2019-02-26T05:04:48.612Z,99443.75
2019-02-26T05:07:20.410Z,99448.58
2019-02-26T05:09:53.148Z,99451.14
2019-02-26T05:12:25.054Z,99455.53
2019-02-26T05:14:54.375Z,99453.02
2019-02-26T05:17:29.628Z,99459.95
2019-02-26T05:19:56.086Z,99455.22
2019-02-26T05:22:31.038Z,99457.99
2019-02-26T05:25:00.148Z,99455.59
2019-02-26T05:27:36.121Z,99461.82
2019-02-26T05:30:09.438Z,99465.86
2019-02-26T05:32:41.271Z,99464.69
2019-02-26T05:35:14.118Z,99458.30
2019-02-26T05:37:43.562Z,99460.80
2019-02-26T05:40:18.747Z,99457.61
2019-02-26T05:42:47.182Z,99464.11
2019-02-26T05:45:17.320Z,99461.59
2019-02-26T05:47:50.187Z,99466.84
2019-02-26T05:50:19.866Z,99474.16
2019-02-26T05:52:57.540Z,99480.32
2019-02-26T05:55:25.470Z,99485.09
2019-02-26T05:57:55.020Z,99485.19
2019-02-26T06:00:28.512Z,99492.27
2019-02-26T06:02:56.149Z,99493.22
2019-02-26T06:05:26.147Z,99493.42
2019-02-26T06:07:54.756Z,99500.95
2019-02-26T06:10:25.162Z,99502.11
2019-02-26T06:12:55.941Z,99489.27
2019-02-26T06:15:25.911Z,99491.28
2019-02-26T06:17:56.151Z,99496.59
2019-02-26T06:20:28.783Z,99498.59
2019-02-26T06:22:57.298Z,99509.95
2019-02-26T06:25:28.486Z,99511.66
2019-02-26T06:27:57.225Z,99505.91
2019-02-26T06:30:29.329Z,99502.69
2019-02-26T06:33:02.029Z,99496.59
2019-02-26T06:35:31.890Z,99493.41
2019-02-26T06:38:04.399Z,99490.76
2019-02-26T06:40:36.654Z,99479.91
2019-02-26T06:43:05.162Z,99471.61
2019-02-26T06:45:36.050Z,99469.43
2019-02-26T06:48:12.627Z,99471.11
2019-02-26T06:50:43.074Z,99464.92
2019-02-26T06:53:13.783Z,99472.44
2019-02-26T06:55:43.924Z,99481.25
2019-02-26T06:58:21.946Z,99474.33
2019-02-26T07:00:55.219Z,99477.48
2019-02-26T07:03:26.058Z,99489.41
2019-02-26T07:05:56.396Z,99486.69
2019-02-26T07:08:28.565Z,99489.97
2019-02-26T07:10:58.567Z,99488.78
2019-02-26T07:13:30.569Z,99497.63
2019-02-26T07:15:59.822Z,99497.81
2019-02-26T07:18:31.400Z,99502.94
2019-02-26T07:21:00.630Z,99494.44
2019-02-26T07:23:30.624Z,99487.00
2019-02-26T07:26:00.305Z,99477.46
2019-02-26T07:28:30.475Z,99473.43
2019-02-26T07:31:03.284Z,99471.78
2019-02-26T07:33:35.116Z,99469.56
2019-02-26T07:36:04.284Z,99464.13
2019-02-26T07:38:41.026Z,99469.38
2019-02-26T07:41:06.319Z,99474.61
2019-02-26T07:43:39.071Z,99478.49
2019-02-26T07:46:10.421Z,99477.98
2019-02-26T07:48:40.347Z,99479.23
2019-02-26T07:51:09.637Z,99480.78
2019-02-26T07:53:44.370Z,99476.89
2019-02-26T07:56:15.054Z,99474.74
2019-02-26T07:58:47.116Z,99470.58
2019-02-26T08:01:19.178Z,99471.61
2019-02-26T08:03:51.417Z,99464.09
2019-02-26T08:06:21.322Z,99460.41
2019-02-26T08:09:00.058Z,99464.56
2019-02-26T08:11:29.355Z,99464.08
2019-02-26T08:13:59.270Z,99465.03
2019-02-26T08:16:32.362Z,99462.55
2019-02-26T08:19:01.618Z,99470.72
2019-02-26T08:21:31.814Z,99480.11
2019-02-26T08:24:02.055Z,99489.69
2019-02-26T08:26:32.239Z,99486.68
2019-02-26T08:29:02.711Z,99486.56
2019-02-26T08:31:32.401Z,99489.58
2019-02-26T08:34:01.624Z,99487.64
2019-02-26T08:36:31.858Z,99480.33
2019-02-26T08:39:01.072Z,99479.52
2019-02-26T08:41:31.146Z,99473.50
2019-02-26T08:44:00.383Z,99466.19
2019-02-26T08:46:30.539Z,99462.16
2019-02-26T08:49:08.117Z,99461.36
2019-02-26T08:51:31.695Z,99456.02
2019-02-26T08:54:00.878Z,99452.06
2019-02-26T08:56:31.540Z,99446.53
2019-02-26T08:59:01.082Z,99456.87
2019-02-26T09:01:30.788Z,99453.42
2019-02-26T09:04:00.817Z,99462.13
2019-02-26T09:06:30.953Z,99460.61
2019-02-26T09:09:02.731Z,99459.86
2019-02-26T09:11:33.852Z,99463.88
2019-02-26T09:14:06.564Z,99461.45
2019-02-26T09:16:36.155Z,99459.52
2019-02-26T09:19:05.509Z,99457.91
2019-02-26T09:21:36.949Z,99459.30
2019-02-26T09:24:07.717Z,99459.65
2019-02-26T09:26:38.100Z,99457.56
2019-02-26T09:29:10.267Z,99453.59
2019-02-26T09:31:41.673Z,99450.53
2019-02-26T09:34:10.949Z,99450.56
2019-02-26T09:36:39.680Z,99460.81
2019-02-26T09:39:10.654Z,99459.20
2019-02-26T09:41:40.315Z,99454.81
2019-02-26T09:44:11.816Z,99463.14
2019-02-26T09:46:43.381Z,99466.67
2019-02-26T09:49:12.659Z,99462.51
2019-02-26T09:51:41.978Z,99465.24
2019-02-26T09:54:12.795Z,99472.57
2019-02-26T09:56:41.407Z,99466.49
2019-02-26T09:59:13.049Z,99469.41
2019-02-26T10:01:42.904Z,99467.73
2019-02-26T10:04:13.153Z,99460.22
2019-02-26T10:06:45.010Z,99467.39
2019-02-26T10:09:16.227Z,99457.58
2019-02-26T10:11:47.382Z,99454.19
2019-02-26T10:14:18.123Z,99455.42
2019-02-26T10:16:51.405Z,99463.77
2019-02-26T10:19:20.266Z,99471.22
2019-02-26T10:21:49.487Z,99476.17
2019-02-26T10:24:22.999Z,99469.21
2019-02-26T10:26:50.636Z,99457.11
2019-02-26T10:29:20.941Z,99452.52
2019-02-26T10:31:56.113Z,99461.25
2019-02-26T10:34:28.098Z,99451.05
2019-02-26T10:36:55.546Z,99452.03
2019-02-26T10:39:28.204Z,99450.36
2019-02-26T10:41:56.710Z,99446.32
2019-02-26T10:44:26.030Z,99437.20
2019-02-26T10:46:57.787Z,99433.22
2019-02-26T10:49:28.790Z,99433.98
2019-02-26T10:52:00.875Z,99430.34
2019-02-26T10:54:34.624Z,99423.26
2019-02-26T10:57:03.545Z,99419.30
2019-02-26T10:59:32.594Z,99413.38
2019-02-26T11:02:03.257Z,99413.11
2019-02-26T11:04:38.078Z,99410.02
2019-02-26T11:07:08.713Z,99409.78
2019-02-26T11:09:39.949Z,99406.69
2019-02-26T11:12:12.003Z,99397.48
2019-02-26T11:14:44.333Z,99397.02
2019-02-26T11:17:15.830Z,99401.80
2019-02-26T11:19:46.002Z,99401.32
2019-02-26T11:22:17.686Z,99387.36
2019-02-26T11:24:44.664Z,99388.76
2019-02-26T11:27:13.888Z,99379.24
2019-02-26T11:29:44.042Z,99374.30
2019-02-26T11:32:15.525Z,99370.73
2019-02-26T11:34:45.835Z,99361.42
2019-02-26T11:37:15.062Z,99351.89
2019-02-26T11:39:44.308Z,99342.53
2019-02-26T11:42:13.514Z,99333.05
2019-02-26T11:44:43.760Z,99325.25
2019-02-26T11:47:16.087Z,99320.93
2019-02-26T11:49:46.630Z,99319.95
2019-02-26T11:52:19.588Z,99309.99
2019-02-26T11:54:47.934Z,99305.42
2019-02-26T11:57:18.122Z,99305.11
2019-02-26T11:59:48.082Z,99304.23
2019-02-26T12:02:25.378Z,99302.80
2019-02-26T12:04:48.682Z,99293.56
2019-02-26T12:07:17.962Z,99292.56
2019-02-26T12:09:48.191Z,99287.75
2019-02-26T12:12:18.912Z,99300.55
2019-02-26T12:14:50.193Z,99290.46
2019-02-26T12:17:20.426Z,99279.70
2019-02-26T12:19:51.508Z,99277.89
2019-02-26T12:22:22.582Z,99277.52
2019-02-26T12:24:55.785Z,99271.55
2019-02-26T12:27:24.508Z,99277.80
2019-02-26T12:29:54.574Z,99270.61
2019-02-26T12:32:27.467Z,99268.17
2019-02-26T12:34:57.389Z,99264.47
2019-02-26T12:37:27.530Z,99258.58
2019-02-26T12:39:57.991Z,99251.25
2019-02-26T12:42:27.230Z,99252.97
2019-02-26T12:45:01.375Z,99242.28
2019-02-26T12:47:30.048Z,99236.30
2019-02-26T12:50:01.952Z,99228.13
2019-02-26T12:52:31.132Z,99229.69
2019-02-26T12:55:04.281Z,99228.91
2019-02-26T12:57:33.227Z,99221.27
2019-02-26T13:00:03.404Z,99217.89
2019-02-26T13:02:36.264Z,99218.42
2019-02-26T13:05:06.679Z,99221.55
2019-02-26T13:07:40.173Z,99208.70
2019-02-26T13:10:19.359Z,99210.92
2019-02-26T13:12:52.806Z,99203.86
2019-02-26T13:15:23.727Z,99203.92
2019-02-26T13:17:54.590Z,99195.38
2019-02-26T13:20:25.551Z,99197.84
2019-02-26T13:23:16.343Z,99197.84
2019-02-26T13:25:31.606Z,99191.44
2019-02-26T13:28:00.820Z,99183.08
2019-02-26T13:30:31.019Z,99157.22
2019-02-26T13:33:04.247Z,99179.17
2019-02-26T13:35:32.209Z,99133.30
2019-02-26T13:38:06.272Z,99154.00
2019-02-26T13:40:38.541Z,99154.00
2019-02-26T13:43:08.377Z,99146.97
2019-02-26T13:45:38.601Z,99143.53
2019-02-26T13:48:08.748Z,99145.16
2019-02-26T13:50:39.199Z,99143.69
2019-02-26T13:53:09.329Z,99149.41
2019-02-26T13:55:39.498Z,99151.91
2019-02-26T13:58:11.845Z,99149.92
2019-02-26T14:00:40.873Z,99150.09
2019-02-26T14:03:11.025Z,99148.91
2019-02-26T14:05:41.197Z,99148.55
2019-02-26T14:08:11.503Z,99150.70
2019-02-26T14:10:43.599Z,99146.12
2019-02-26T14:13:13.809Z,99140.01
2019-02-26T14:15:44.131Z,99134.23
2019-02-26T14:18:13.400Z,99147.25
2019-02-26T14:20:42.709Z,99143.65
2019-02-26T14:23:11.965Z,99142.80
2019-02-26T14:25:44.362Z,99140.35
2019-02-26T14:28:14.540Z,99135.09
2019-02-26T14:30:46.198Z,99123.59
2019-02-26T14:33:15.550Z,99123.59
2019-02-26T14:35:45.751Z,99125.36
2019-02-26T14:38:16.010Z,99128.36
2019-02-26T14:40:46.242Z,99120.49
2019-02-26T14:43:15.499Z,99120.25
2019-02-26T14:45:46.387Z,99123.83
2019-02-26T14:48:16.559Z,99121.68
2019-02-26T14:50:46.745Z,99118.44
2019-02-26T14:53:17.029Z,99126.86
2019-02-26T14:55:47.510Z,99126.91
2019-02-26T14:58:16.756Z,99123.12
2019-02-26T15:00:45.541Z,99122.17
2019-02-26T15:03:15.790Z,99123.77
2019-02-26T15:05:45.961Z,99110.78
2019-02-26T15:08:16.476Z,99114.09
2019-02-26T15:10:46.639Z,99105.72
2019-02-26T15:13:16.843Z,99112.70
2019-02-26T15:15:46.140Z,99111.16
2019-02-26T15:18:16.362Z,99111.32
2019-02-26T15:20:45.759Z,99109.37
2019-02-26T15:23:15.006Z,99117.78
2019-02-26T15:25:45.720Z,99119.69
2019-02-26T15:28:15.972Z,99114.20
2019-02-26T15:30:47.693Z,99116.33
2019-02-26T15:33:19.857Z,99106.78
2019-02-26T15:35:49.035Z,99108.17
2019-02-26T15:38:19.212Z,99100.41
2019-02-26T15:40:51.116Z,99096.34
2019-02-26T15:43:24.510Z,99091.12
2019-02-26T15:45:57.778Z,99090.30
2019-02-26T15:48:28.032Z,99097.64
2019-02-26T15:50:58.188Z,99098.86
2019-02-26T15:53:28.690Z,99095.69
2019-02-26T15:55:59.454Z,99084.95
2019-02-26T15:58:34.186Z,99079.01
2019-02-26T16:01:02.828Z,99068.94
2019-02-26T16:03:32.056Z,99063.37
2019-02-26T16:06:02.217Z,99066.41
2019-02-26T16:08:34.836Z,99069.20
2019-02-26T16:11:06.473Z,99072.81
2019-02-26T16:13:36.714Z,99076.67
2019-02-26T16:16:06.026Z,99079.94
2019-02-26T16:18:36.251Z,99080.86
2019-02-26T16:21:18.512Z,99090.72
2019-02-26T16:23:46.027Z,99091.76
2019-02-26T16:26:15.252Z,99095.48
2019-02-26T16:28:45.419Z,99099.82
2019-02-26T16:31:15.986Z,99106.95
2019-02-26T16:33:46.704Z,99109.27
2019-02-26T16:36:17.611Z,99112.09
2019-02-26T16:38:50.733Z,99118.34
2019-02-26T16:41:20.618Z,99114.09
2019-02-26T16:43:51.823Z,99112.85
2019-02-26T16:46:22.601Z,99118.11
2019-02-26T16:48:53.546Z,99118.70
2019-02-26T16:51:23.350Z,99131.06
2019-02-26T16:53:53.583Z,99129.77
2019-02-26T16:56:22.875Z,99125.94
2019-02-26T16:58:54.612Z,99133.94
2019-02-26T17:01:24.861Z,99132.81
2019-02-26T17:03:55.088Z,99136.34
2019-02-26T17:06:25.395Z,99132.63
2019-02-26T17:08:57.455Z,99142.39
2019-02-26T17:11:27.649Z,99142.31
2019-02-26T17:13:59.309Z,99146.59
2019-02-26T17:16:31.911Z,99148.03
2019-02-26T17:19:00.467Z,99149.76
2019-02-26T17:21:30.678Z,99163.34
2019-02-26T17:24:00.467Z,99165.23
2019-02-26T17:26:33.143Z,99161.16
2019-02-26T17:29:02.638Z,99164.34
2019-02-26T17:31:31.895Z,99154.00
2019-02-26T17:34:03.739Z,99160.84
2019-02-26T17:36:35.385Z,99159.45
2019-02-26T17:39:07.076Z,99156.52
2019-02-26T17:41:37.196Z,99156.19
2019-02-26T17:44:07.658Z,99156.13
2019-02-26T17:46:37.880Z,99159.52
2019-02-26T17:49:07.195Z,99159.70
2019-02-26T17:51:38.000Z,99162.04
2019-02-26T17:54:08.271Z,99160.29
2019-02-26T17:56:38.489Z,99166.95
2019-02-26T17:59:08.698Z,99165.52
2019-02-26T18:01:38.905Z,99156.81
2019-02-26T18:04:08.121Z,99156.89
2019-02-26T18:06:37.369Z,99153.07
2019-02-26T18:09:07.011Z,99161.69
2019-02-26T18:11:36.609Z,99164.27
2019-02-26T18:14:06.909Z,99162.63
2019-02-26T18:16:36.153Z,99178.66
2019-02-26T18:19:06.377Z,99183.31
2019-02-26T18:21:36.651Z,99180.69
2019-02-26T18:24:05.883Z,99184.46
2019-02-26T18:26:36.043Z,99180.41
2019-02-26T18:29:06.430Z,99189.16
2019-02-26T18:31:38.750Z,99190.21
2019-02-26T18:34:07.965Z,99181.78
2019-02-26T18:36:38.204Z,99180.81
2019-02-26T18:39:07.742Z,99185.65
2019-02-26T18:41:36.957Z,99172.95
2019-02-26T18:44:06.482Z,99172.39
2019-02-26T18:46:35.690Z,99162.34
2019-02-26T18:49:05.195Z,99163.95
2019-02-26T18:51:36.412Z,99161.98
2019-02-26T18:54:07.242Z,99170.08
2019-02-26T18:56:39.486Z,99184.13
2019-02-26T18:59:08.411Z,99167.95
2019-02-26T19:01:37.664Z,99176.91
2019-02-26T19:04:07.943Z,99171.05
2019-02-26T19:06:38.124Z,99174.59
2019-02-26T19:09:11.543Z,99171.77
2019-02-26T19:11:41.114Z,99169.64
2019-02-26T19:14:11.275Z,99164.94
2019-02-26T19:16:41.499Z,99174.84
2019-02-26T19:19:10.200Z,99173.41
2019-02-26T19:21:40.398Z,99173.02
2019-02-26T19:24:12.554Z,99177.46
2019-02-26T19:26:44.504Z,99164.02
2019-02-26T19:29:13.746Z,99166.02
2019-02-26T19:31:44.909Z,99154.43
2019-02-26T19:34:15.158Z,99150.56
2019-02-26T19:36:45.830Z,99149.73
2019-02-26T19:39:16.458Z,99156.77
2019-02-26T19:41:45.935Z,99155.98
2019-02-26T19:44:17.931Z,99164.34
2019-02-26T19:46:49.409Z,99157.31
2019-02-26T19:49:19.122Z,99147.15
2019-02-26T19:51:49.383Z,99153.16
2019-02-26T19:54:18.662Z,99147.08
2019-02-26T19:56:54.668Z,99156.28
2019-02-26T19:59:27.613Z,99148.31
2019-02-26T20:01:59.693Z,99145.24
2019-02-26T20:04:31.551Z,99148.27
2019-02-26T20:07:03.270Z,99144.18
2019-02-26T20:09:33.560Z,99134.98
2019-02-26T20:12:03.755Z,99136.55
2019-02-26T20:14:33.986Z,99129.58
2019-02-26T20:17:11.612Z,99125.20
2019-02-26T20:19:36.011Z,99121.55
2019-02-26T20:22:06.189Z,99113.58
2019-02-26T20:24:35.472Z,99115.05
2019-02-26T20:27:04.683Z,99109.06
2019-02-26T20:29:33.958Z,99116.24
2019-02-26T20:32:03.195Z,99106.60
2019-02-26T20:34:33.457Z,99106.09
2019-02-26T20:37:03.703Z,99108.21
2019-02-26T20:39:33.954Z,99103.05
2019-02-26T20:42:03.158Z,99112.27
2019-02-26T20:44:33.384Z,99116.01
2019-02-26T20:47:02.629Z,99115.03
2019-02-26T20:49:34.318Z,99116.48
2019-02-26T20:52:04.503Z,99129.75
2019-02-26T20:54:48.963Z,99120.70
2019-02-26T20:57:19.159Z,99127.34
2019-02-26T20:59:51.720Z,99118.97
2019-02-26T21:02:21.388Z,99113.09
2019-02-26T21:04:50.655Z,99119.52
2019-02-26T21:07:24.584Z,99120.39
2019-02-26T21:10:03.530Z,99113.84
2019-02-26T21:12:28.623Z,99118.09
2019-02-26T21:14:57.425Z,99131.95
2019-02-26T21:17:26.602Z,99123.84
2019-02-26T21:19:55.868Z,99127.19
2019-02-26T21:22:26.085Z,99133.78
2019-02-26T21:24:56.331Z,99142.58
2019-02-26T21:27:25.905Z,99147.55
2019-02-26T21:29:56.718Z,99155.12
2019-02-26T21:32:26.936Z,99150.75
2019-02-26T21:34:57.105Z,99148.20
2019-02-26T21:37:25.905Z,99144.49
2019-02-26T21:39:56.043Z,99147.05
2019-02-26T21:42:28.813Z,99150.28
2019-02-26T21:44:58.218Z,99144.95
2019-02-26T21:47:27.483Z,99144.84
2019-02-26T21:49:56.738Z,99143.36
2019-02-26T21:52:26.892Z,99145.36
2019-02-26T21:55:01.239Z,99151.48
2019-02-26T21:57:31.340Z,99155.50
2019-02-26T22:00:05.132Z,99153.70
2019-02-26T22:02:34.443Z,99157.87
2019-02-26T22:05:05.269Z,99149.92
2019-02-26T22:07:34.686Z,99146.86
2019-02-26T22:10:07.091Z,99154.59
2019-02-26T22:12:36.192Z,99147.89
2019-02-26T22:15:10.870Z,99148.20
2019-02-26T22:17:40.589Z,99152.61
2019-02-26T22:20:22.079Z,99151.62
2019-02-26T22:22:45.472Z,99153.79
2019-02-26T22:25:17.423Z,99155.62
2019-02-26T22:27:49.231Z,99155.31
2019-02-26T22:30:21.447Z,99155.72
2019-02-26T22:32:50.763Z,99156.00
2019-02-26T22:35:19.996Z,99154.14
2019-02-26T22:37:48.459Z,99146.63
2019-02-26T22:40:16.896Z,99149.08
2019-02-26T22:42:46.170Z,99150.11
2019-02-26T22:45:15.653Z,99139.50
2019-02-26T22:47:45.992Z,99142.21
2019-02-26T22:50:19.247Z,99145.91
2019-02-26T22:52:49.525Z,99147.50
2019-02-26T22:55:18.895Z,99143.94
2019-02-26T22:57:48.142Z,99146.94
2019-02-26T23:00:53.044Z,99143.86
2019-02-26T23:03:23.324Z,99141.39
2019-02-26T23:05:53.645Z,99140.31
2019-02-26T23:08:23.880Z,99141.25
2019-02-26T23:10:56.828Z,99137.30
2019-02-26T23:13:26.184Z,99135.84
2019-02-26T23:15:57.902Z,99143.77
2019-02-26T23:18:28.437Z,99139.28
2019-02-26T23:20:59.173Z,99140.41
2019-02-26T23:23:29.615Z,99139.77
2019-02-26T23:25:58.894Z,99145.55
2019-02-26T23:28:29.108Z,99144.70
2019-02-26T23:31:00.337Z,99135.44
2019-02-26T23:33:29.622Z,99133.95
2019-02-26T23:35:59.817Z,99137.06
2019-02-26T23:38:30.061Z,99138.27
2019-02-26T23:41:02.155Z,99141.95
2019-02-26T23:43:31.582Z,99135.38
2019-02-26T23:46:01.786Z,99135.75
2019-02-26T23:48:31.946Z,99130.03
2019-02-26T23:51:02.127Z,99133.61
2019-02-26T23:53:33.884Z,99133.94
2019-02-26T23:56:03.184Z,99139.47
2019-02-26T23:58:32.440Z,99145.20
